Time;durP1;ratioP1;P1;durP2;ratioP2;P2;SDS_P1;SDS_P2;PMS_P1;PMS_P2;Temp;Humidity;BMP_temperature;BMP_pressure;BME280_temperature;BME280_humidity;BME280_pressure;Samples;Min_cycle;Max_cycle;Signal;HPM_P1;HPM_P2
2021/10/07 00:00:07;;;;;;;;;;;12.60;1.00;;;;;;5048484;28;19921;-82
2021/10/07 00:02:33;;;;;;;;;;;12.60;1.00;;;;;;5041581;28;19913;-81
2021/10/07 00:04:58;;;;;;;;;;;12.70;1.00;;;;;;5037536;28;19959;-82
2021/10/07 00:07:24;;;;;;;;;;;12.70;1.00;;;;;;5045868;28;20344;-83
2021/10/07 00:09:49;;;;;;;;;;;12.70;1.00;;;;;;5045968;28;19921;-82
2021/10/07 00:12:14;;;;;;;;;;;12.70;1.00;;;;;;5048480;28;19913;-83
2021/10/07 00:14:40;;;;;;;;;;;12.70;1.00;;;;;;5047342;28;19913;-82
2021/10/07 00:17:06;;;;;;;;;;;12.70;1.00;;;;;;5046084;28;19991;-82
2021/10/07 00:19:31;;;;;;;;;;;12.70;1.00;;;;;;5045971;28;19912;-82
2021/10/07 00:21:56;;;;;;;;;;;12.70;1.00;;;;;;5046286;28;19917;-82
2021/10/07 00:24:22;;;;;;;;;;;12.70;1.00;;;;;;5056417;28;19913;-82
2021/10/07 00:26:47;;;;;;;;;;;12.70;1.00;;;;;;5050887;28;19917;-82
2021/10/07 00:32:08;;;;;;;;;;;12.70;1.00;;;;;;5031484;28;19971;-82
2021/10/07 00:37:26;;;;;;;;;;;12.70;1.00;;;;;;5037825;28;19912;-82
2021/10/07 00:39:52;;;;;;;;;;;12.70;1.00;;;;;;5049023;28;20004;-82
2021/10/07 00:42:18;;;;;;;;;;;12.70;1.00;;;;;;5053882;28;20403;-83
2021/10/07 00:44:44;;;;;;;;;;;12.80;1.00;;;;;;5053245;28;20050;-82
2021/10/07 00:47:11;;;;;;;;;;;12.80;1.00;;;;;;5027396;28;19917;-82
2021/10/07 00:49:39;;;;;;;;;;;12.80;1.00;;;;;;5047751;28;19917;-83
2021/10/07 00:52:05;;;;;;;;;;;12.80;1.00;;;;;;5060516;28;19913;-82
2021/10/07 00:54:31;;;;;;;;;;;12.80;1.00;;;;;;5059479;28;19909;-82
2021/10/07 00:56:57;;;;;;;;;;;12.80;1.00;;;;;;5051993;28;19940;-82
2021/10/07 00:59:23;;;;;;;;;;;12.80;1.00;;;;;;5049388;28;19913;-82
2021/10/07 01:01:48;;;;;;;;;;;12.80;1.00;;;;;;5033469;28;19920;-82
2021/10/07 01:04:14;;;;;;;;;;;12.80;1.00;;;;;;5042302;28;19920;-82
2021/10/07 01:06:43;;;;;;;;;;;12.80;1.00;;;;;;5052894;28;19924;-83
2021/10/07 01:09:09;;;;;;;;;;;12.80;1.00;;;;;;5046284;28;19988;-82
2021/10/07 01:11:34;;;;;;;;;;;12.80;1.00;;;;;;5045222;28;19975;-82
2021/10/07 01:14:00;;;;;;;;;;;12.80;1.00;;;;;;5049988;28;19913;-82
2021/10/07 01:16:26;;;;;;;;;;;12.80;1.00;;;;;;5054799;28;19915;-82
2021/10/07 01:18:52;;;;;;;;;;;12.80;1.00;;;;;;5049713;28;19962;-82
2021/10/07 01:21:18;;;;;;;;;;;12.80;1.00;;;;;;5049558;28;19967;-82
2021/10/07 01:23:44;;;;;;;;;;;12.80;1.00;;;;;;5051013;28;19983;-82
2021/10/07 01:26:11;;;;;;;;;;;12.80;1.00;;;;;;5044047;28;19917;-82
2021/10/07 01:28:37;;;;;;;;;;;12.80;1.00;;;;;;5048386;28;19921;-83
2021/10/07 01:31:03;;;;;;;;;;;12.80;1.00;;;;;;5050165;28;19913;-82
2021/10/07 01:33:29;;;;;;;;;;;12.90;1.00;;;;;;5043290;28;19917;-81
2021/10/07 01:35:54;;;;;;;;;;;12.90;1.00;;;;;;5044810;28;19913;-82
2021/10/07 01:38:20;;;;;;;;;;;12.90;1.00;;;;;;5053966;28;19913;-82
2021/10/07 01:40:45;;;;;;;;;;;12.90;1.00;;;;;;5038373;28;19913;-82
2021/10/07 01:43:11;;;;;;;;;;;12.90;1.00;;;;;;5045075;28;20296;-82
2021/10/07 01:45:36;;;;;;;;;;;12.90;1.00;;;;;;5048014;28;19967;-82
2021/10/07 01:48:02;;;;;;;;;;;12.90;1.00;;;;;;5043824;28;19925;-82
2021/10/07 01:50:27;;;;;;;;;;;12.90;1.00;;;;;;5050995;28;19960;-82
2021/10/07 01:52:53;;;;;;;;;;;12.90;1.00;;;;;;5045194;28;19913;-82
2021/10/07 01:55:18;;;;;;;;;;;12.90;1.00;;;;;;5041697;28;19920;-82
2021/10/07 01:57:44;;;;;;;;;;;13.00;1.00;;;;;;5047542;28;19917;-82
2021/10/07 02:00:09;;;;;;;;;;;13.00;1.00;;;;;;5054502;28;20561;-82
2021/10/07 02:02:35;;;;;;;;;;;13.00;1.00;;;;;;5050892;28;19975;-81
2021/10/07 02:05:00;;;;;;;;;;;13.00;1.00;;;;;;5047750;28;19913;-82
2021/10/07 02:07:26;;;;;;;;;;;13.00;1.00;;;;;;5046394;28;19982;-82
2021/10/07 02:09:51;;;;;;;;;;;13.00;1.00;;;;;;5043332;28;19952;-82
2021/10/07 02:12:17;;;;;;;;;;;13.00;1.00;;;;;;5041407;28;19913;-82
2021/10/07 02:14:42;;;;;;;;;;;13.00;1.00;;;;;;5042337;28;20380;-81
2021/10/07 02:17:08;;;;;;;;;;;13.00;1.00;;;;;;5057412;28;20385;-82
2021/10/07 02:19:33;;;;;;;;;;;13.00;1.00;;;;;;5047430;28;19913;-82
2021/10/07 02:21:59;;;;;;;;;;;13.00;1.00;;;;;;5048059;28;19963;-82
2021/10/07 02:24:25;;;;;;;;;;;13.00;1.00;;;;;;5052701;28;19936;-82
2021/10/07 02:26:51;;;;;;;;;;;13.00;1.00;;;;;;5047841;28;20416;-81
2021/10/07 02:29:16;;;;;;;;;;;13.10;1.00;;;;;;5052227;28;20016;-81
2021/10/07 02:31:42;;;;;;;;;;;13.00;1.00;;;;;;5049133;28;19948;-82
2021/10/07 02:34:07;;;;;;;;;;;13.10;1.00;;;;;;5043837;28;19947;-82
2021/10/07 02:36:33;;;;;;;;;;;13.10;1.00;;;;;;5047981;28;19916;-82
2021/10/07 02:38:58;;;;;;;;;;;13.10;1.00;;;;;;5048286;28;19936;-82
2021/10/07 02:41:24;;;;;;;;;;;13.10;1.00;;;;;;5051073;28;19912;-82
2021/10/07 02:43:49;;;;;;;;;;;13.10;1.00;;;;;;5054729;28;19935;-82
2021/10/07 02:46:15;;;;;;;;;;;13.10;1.00;;;;;;5049141;28;19963;-82
2021/10/07 02:48:42;;;;;;;;;;;13.00;1.00;;;;;;5040763;28;19912;-82
2021/10/07 02:51:08;;;;;;;;;;;13.10;1.00;;;;;;5055020;28;19937;-82
2021/10/07 02:53:33;;;;;;;;;;;13.10;1.00;;;;;;5052528;28;20362;-82
2021/10/07 02:55:59;;;;;;;;;;;13.10;1.00;;;;;;5052427;28;19955;-82
2021/10/07 02:58:24;;;;;;;;;;;13.10;1.00;;;;;;5048159;28;19959;-82
2021/10/07 03:00:50;;;;;;;;;;;13.10;1.00;;;;;;5054729;28;19920;-82
2021/10/07 03:03:15;;;;;;;;;;;13.10;1.00;;;;;;5048335;28;20033;-82
2021/10/07 03:05:41;;;;;;;;;;;13.10;1.00;;;;;;5037388;28;19986;-82
2021/10/07 03:08:06;;;;;;;;;;;13.10;1.00;;;;;;5039728;28;20288;-82
2021/10/07 03:10:32;;;;;;;;;;;13.10;1.00;;;;;;5049546;28;19913;-82
2021/10/07 03:12:58;;;;;;;;;;;13.10;1.00;;;;;;5041975;28;19913;-82
2021/10/07 03:15:23;;;;;;;;;;;13.10;1.00;;;;;;5045374;28;19919;-82
2021/10/07 03:17:49;;;;;;;;;;;13.10;1.00;;;;;;5047505;28;19913;-82
2021/10/07 03:20:14;;;;;;;;;;;13.10;1.00;;;;;;5044350;28;19967;-82
2021/10/07 03:22:40;;;;;;;;;;;13.10;1.00;;;;;;5047454;28;19936;-82
2021/10/07 03:25:06;;;;;;;;;;;13.20;1.00;;;;;;5046978;28;20040;-82
2021/10/07 03:27:32;;;;;;;;;;;13.20;1.00;;;;;;5054530;28;19966;-82
2021/10/07 03:29:57;;;;;;;;;;;13.20;1.00;;;;;;5043531;28;19912;-83
2021/10/07 03:32:23;;;;;;;;;;;13.20;1.00;;;;;;5050577;28;19913;-82
2021/10/07 03:34:48;;;;;;;;;;;13.20;1.00;;;;;;5052016;28;19982;-82
2021/10/07 03:37:14;;;;;;;;;;;13.20;1.00;;;;;;5048437;28;19913;-82
2021/10/07 03:39:39;;;;;;;;;;;13.20;1.00;;;;;;5050481;28;19913;-82
2021/10/07 03:42:05;;;;;;;;;;;13.20;1.00;;;;;;5058760;28;19916;-82
2021/10/07 03:44:30;;;;;;;;;;;13.20;1.00;;;;;;5048057;28;20177;-82
2021/10/07 03:46:56;;;;;;;;;;;13.20;1.00;;;;;;5050720;28;20282;-82
2021/10/07 03:49:22;;;;;;;;;;;13.20;1.00;;;;;;5045854;28;19975;-82
2021/10/07 03:51:47;;;;;;;;;;;13.20;1.00;;;;;;5056641;28;19913;-82
2021/10/07 03:54:13;;;;;;;;;;;13.20;1.00;;;;;;5047143;28;20274;-82
2021/10/07 03:56:39;;;;;;;;;;;13.20;1.00;;;;;;5049714;28;19913;-82
2021/10/07 03:59:05;;;;;;;;;;;13.20;1.00;;;;;;5049201;28;19920;-82
2021/10/07 04:01:30;;;;;;;;;;;13.20;1.00;;;;;;5053527;28;20369;-82
2021/10/07 04:03:56;;;;;;;;;;;13.20;1.00;;;;;;5041701;28;19917;-82
2021/10/07 04:06:21;;;;;;;;;;;13.20;1.00;;;;;;5051081;28;19967;-83
2021/10/07 04:08:47;;;;;;;;;;;13.20;1.00;;;;;;5059204;28;19913;-82
2021/10/07 04:11:12;;;;;;;;;;;13.20;1.00;;;;;;5047104;28;19909;-82
2021/10/07 04:13:38;;;;;;;;;;;13.30;1.00;;;;;;5061656;28;19920;-82
2021/10/07 04:16:03;;;;;;;;;;;13.30;1.00;;;;;;5048104;28;19909;-82
2021/10/07 04:18:29;;;;;;;;;;;13.30;1.00;;;;;;5045919;28;20345;-82
2021/10/07 04:20:54;;;;;;;;;;;13.30;1.00;;;;;;5063037;28;19936;-82
2021/10/07 04:23:20;;;;;;;;;;;13.30;1.00;;;;;;5060221;28;20405;-81
2021/10/07 04:25:45;;;;;;;;;;;13.30;1.00;;;;;;5047395;28;19916;-82
2021/10/07 04:28:11;;;;;;;;;;;13.30;1.00;;;;;;5046384;28;19995;-82
2021/10/07 04:30:37;;;;;;;;;;;13.30;1.00;;;;;;5049595;28;19924;-82
2021/10/07 04:33:03;;;;;;;;;;;13.30;1.00;;;;;;5050847;28;19970;-82
2021/10/07 04:35:29;;;;;;;;;;;13.30;1.00;;;;;;5049198;28;19914;-82
2021/10/07 04:37:54;;;;;;;;;;;13.30;1.00;;;;;;5045949;28;20381;-82
2021/10/07 04:40:20;;;;;;;;;;;13.30;1.00;;;;;;5039344;28;19967;-82
2021/10/07 04:42:45;;;;;;;;;;;13.40;1.00;;;;;;5053951;28;20102;-82
2021/10/07 04:45:11;;;;;;;;;;;13.30;1.00;;;;;;5052950;28;20012;-82
2021/10/07 04:47:37;;;;;;;;;;;13.30;1.00;;;;;;5049491;28;20331;-82
2021/10/07 04:50:03;;;;;;;;;;;13.30;1.00;;;;;;5054611;28;19962;-82
2021/10/07 04:52:28;;;;;;;;;;;13.30;1.00;;;;;;5043449;28;20292;-82
2021/10/07 04:54:54;;;;;;;;;;;13.30;1.00;;;;;;5048081;28;19931;-82
2021/10/07 04:57:19;;;;;;;;;;;13.30;1.00;;;;;;5037766;28;19913;-82
2021/10/07 04:59:45;;;;;;;;;;;13.40;1.00;;;;;;5050712;28;19909;-82
2021/10/07 05:02:12;;;;;;;;;;;13.40;1.00;;;;;;5041847;28;20003;-82
2021/10/07 05:04:37;;;;;;;;;;;13.40;1.00;;;;;;5050775;28;19916;-82
2021/10/07 05:07:03;;;;;;;;;;;13.40;1.00;;;;;;5047874;28;19916;-81
2021/10/07 05:09:28;;;;;;;;;;;13.40;1.00;;;;;;5053435;28;19913;-82
2021/10/07 05:11:54;;;;;;;;;;;13.40;1.00;;;;;;5045551;28;19919;-82
2021/10/07 05:14:19;;;;;;;;;;;13.40;1.00;;;;;;5037859;28;20069;-82
2021/10/07 05:16:45;;;;;;;;;;;13.40;1.00;;;;;;5044884;28;19913;-81
2021/10/07 05:19:10;;;;;;;;;;;13.40;1.00;;;;;;5047216;28;20393;-82
2021/10/07 05:21:36;;;;;;;;;;;13.40;1.00;;;;;;5043403;28;19921;-82
2021/10/07 05:24:01;;;;;;;;;;;13.40;1.00;;;;;;5038823;28;20385;-82
2021/10/07 05:26:27;;;;;;;;;;;13.40;1.00;;;;;;5046150;28;20055;-82
2021/10/07 05:28:52;;;;;;;;;;;13.40;1.00;;;;;;5041922;28;19909;-82
2021/10/07 05:31:18;;;;;;;;;;;13.40;1.00;;;;;;5045913;28;19946;-81
2021/10/07 05:33:43;;;;;;;;;;;13.40;1.00;;;;;;5043522;28;20420;-82
2021/10/07 05:36:09;;;;;;;;;;;13.40;1.00;;;;;;5052168;28;19966;-82
2021/10/07 05:38:34;;;;;;;;;;;13.40;1.00;;;;;;5050480;28;19920;-82
2021/10/07 05:41:00;;;;;;;;;;;13.40;1.00;;;;;;5043178;28;19913;-82
2021/10/07 05:43:26;;;;;;;;;;;13.40;1.00;;;;;;5044835;28;19913;-82
2021/10/07 05:45:52;;;;;;;;;;;13.40;1.00;;;;;;5045247;28;19917;-82
2021/10/07 05:48:17;;;;;;;;;;;13.50;1.00;;;;;;5050480;28;20003;-82
2021/10/07 05:50:43;;;;;;;;;;;13.50;1.00;;;;;;5047896;28;19913;-82
2021/10/07 05:53:08;;;;;;;;;;;13.50;1.00;;;;;;5048970;28;19920;-82
2021/10/07 05:55:34;;;;;;;;;;;13.50;1.00;;;;;;5038385;28;19917;-81
2021/10/07 05:57:59;;;;;;;;;;;13.50;1.00;;;;;;5055409;28;19919;-82
2021/10/07 06:00:25;;;;;;;;;;;13.50;1.00;;;;;;5050574;28;19913;-82
2021/10/07 06:02:50;;;;;;;;;;;13.40;1.00;;;;;;5048938;28;19913;-80
2021/10/07 06:05:16;;;;;;;;;;;13.50;1.00;;;;;;5052551;28;19921;-82
2021/10/07 06:07:41;;;;;;;;;;;13.50;1.00;;;;;;5057456;28;20319;-82
2021/10/07 06:10:08;;;;;;;;;;;13.50;1.00;;;;;;5040527;28;20263;-81
2021/10/07 06:12:34;;;;;;;;;;;13.50;1.00;;;;;;5039352;28;19920;-82
2021/10/07 06:15:00;;;;;;;;;;;13.50;1.00;;;;;;5056937;28;20491;-82
2021/10/07 06:17:25;;;;;;;;;;;13.50;1.00;;;;;;5038981;28;20000;-82
2021/10/07 06:19:56;;;;;;;;;;;13.60;1.00;;;;;;5051043;28;19916;-82
2021/10/07 06:22:21;;;;;;;;;;;13.60;1.00;;;;;;5056570;28;19912;-82
2021/10/07 06:24:47;;;;;;;;;;;13.60;1.00;;;;;;5050235;28;20288;-81
2021/10/07 06:27:12;;;;;;;;;;;13.60;1.00;;;;;;5048859;28;19916;-82
2021/10/07 06:29:38;;;;;;;;;;;13.60;1.00;;;;;;5046404;28;19958;-83
2021/10/07 06:32:03;;;;;;;;;;;13.60;1.00;;;;;;5052349;28;19913;-83
2021/10/07 06:34:29;;;;;;;;;;;13.60;1.00;;;;;;5051171;28;19919;-82
2021/10/07 06:36:55;;;;;;;;;;;13.60;1.00;;;;;;5058012;28;19912;-82
2021/10/07 06:39:20;;;;;;;;;;;13.60;1.00;;;;;;5057682;28;20246;-82
2021/10/07 06:41:47;;;;;;;;;;;13.60;1.00;;;;;;5044075;28;19970;-82
2021/10/07 06:44:13;;;;;;;;;;;13.70;1.00;;;;;;5043863;28;20016;-82
2021/10/07 06:46:39;;;;;;;;;;;13.70;1.00;;;;;;5053024;28;20039;-82
2021/10/07 06:49:04;;;;;;;;;;;13.70;1.00;;;;;;5039967;28;19913;-82
2021/10/07 06:51:29;;;;;;;;;;;13.70;1.00;;;;;;5049437;28;19999;-81
2021/10/07 06:53:57;;;;;;;;;;;13.70;1.00;;;;;;5046905;28;19917;-82
2021/10/07 06:56:23;;;;;;;;;;;13.80;1.00;;;;;;5050990;28;20373;-82
2021/10/07 06:58:52;;;;;;;;;;;13.80;1.00;;;;;;5056378;28;19913;-82
2021/10/07 07:01:19;;;;;;;;;;;13.80;1.00;;;;;;5048761;28;19956;-81
2021/10/07 07:03:45;;;;;;;;;;;13.90;1.00;;;;;;5045150;28;19949;-81
2021/10/07 07:06:10;;;;;;;;;;;13.90;1.00;;;;;;5037486;28;19917;-82
2021/10/07 07:08:37;;;;;;;;;;;13.90;1.00;;;;;;5053746;28;19921;-82
2021/10/07 07:11:02;;;;;;;;;;;13.90;1.00;;;;;;5057340;28;20071;-82
2021/10/07 07:13:28;;;;;;;;;;;13.90;1.00;;;;;;5048812;28;19949;-82
2021/10/07 07:15:53;;;;;;;;;;;13.90;1.00;;;;;;5040868;28;19920;-82
2021/10/07 07:18:19;;;;;;;;;;;14.00;1.00;;;;;;5044645;28;19909;-82
2021/10/07 07:20:44;;;;;;;;;;;14.00;1.00;;;;;;5051096;28;19959;-82
2021/10/07 07:23:10;;;;;;;;;;;14.00;1.00;;;;;;5052361;28;19913;-82
2021/10/07 07:25:35;;;;;;;;;;;14.10;1.00;;;;;;5047815;28;19909;-82
2021/10/07 07:28:01;;;;;;;;;;;14.20;1.00;;;;;;5044510;28;20365;-82
2021/10/07 07:30:26;;;;;;;;;;;14.30;1.00;;;;;;5049597;28;19959;-82
2021/10/07 07:32:52;;;;;;;;;;;14.40;1.00;;;;;;5048905;28;20305;-82
2021/10/07 07:35:17;;;;;;;;;;;14.50;1.00;;;;;;5048607;28;19920;-82
2021/10/07 07:37:43;;;;;;;;;;;14.60;1.00;;;;;;5050301;28;20656;-82
2021/10/07 07:40:11;;;;;;;;;;;14.60;1.00;;;;;;5041154;28;20405;-82
2021/10/07 07:42:36;;;;;;;;;;;14.70;1.00;;;;;;5048367;28;20356;-82
2021/10/07 07:45:03;;;;;;;;;;;14.70;1.00;;;;;;5053153;28;19912;-82
2021/10/07 07:47:28;;;;;;;;;;;14.70;1.00;;;;;;5047949;28;19940;-82
2021/10/07 07:49:54;;;;;;;;;;;14.80;1.00;;;;;;5051424;28;19913;-81
2021/10/07 07:52:20;;;;;;;;;;;14.80;1.00;;;;;;5058909;28;19913;-82
2021/10/07 07:54:46;;;;;;;;;;;14.80;1.00;;;;;;5041233;28;20444;-81
2021/10/07 07:57:11;;;;;;;;;;;14.80;1.00;;;;;;5028287;28;19917;-82
2021/10/07 07:59:37;;;;;;;;;;;14.80;99.90;;;;;;5043184;28;20269;-81
2021/10/07 08:02:02;;;;;;;;;;;14.80;99.90;;;;;;5034573;28;19975;-81
2021/10/07 08:04:27;;;;;;;;;;;14.90;99.90;;;;;;5036243;28;19913;-81
2021/10/07 08:06:53;;;;;;;;;;;14.90;99.90;;;;;;4973359;28;1762264;-82
2021/10/07 08:09:18;;;;;;;;;;;15.00;99.90;;;;;;5038552;28;19963;-81
2021/10/07 08:11:44;;;;;;;;;;;15.10;99.90;;;;;;5033763;28;19950;-81
2021/10/07 08:14:10;;;;;;;;;;;15.20;99.90;;;;;;5033286;28;19975;-82
2021/10/07 08:16:36;;;;;;;;;;;15.20;99.90;;;;;;5032476;28;20275;-81
2021/10/07 08:19:01;;;;;;;;;;;15.30;99.90;;;;;;5033882;28;20394;-80
2021/10/07 08:21:27;;;;;;;;;;;15.30;1.00;;;;;;5034424;28;19924;-81
2021/10/07 08:23:54;;;;;;;;;;;15.30;1.00;;;;;;5035567;28;19920;-81
2021/10/07 08:26:19;;;;;;;;;;;15.40;1.00;;;;;;5033001;28;19917;-82
2021/10/07 08:28:45;;;;;;;;;;;15.70;1.00;;;;;;5045319;28;19921;-81
2021/10/07 08:31:12;;;;;;;;;;;16.10;1.00;;;;;;5027820;28;19920;-82
2021/10/07 08:33:38;;;;;;;;;;;16.70;99.90;;;;;;5036652;28;19921;-82
2021/10/07 08:36:04;;;;;;;;;;;17.30;43.10;;;;;;5030631;28;19920;-82
2021/10/07 08:38:29;;;;;;;;;;;17.90;1.00;;;;;;5043153;28;19976;-82
2021/10/07 08:40:55;;;;;;;;;;;18.60;1.00;;;;;;5035756;28;19913;-82
2021/10/07 08:43:23;;;;;;;;;;;19.30;99.90;;;;;;5038677;28;19960;-82
2021/10/07 08:45:49;;;;;;;;;;;20.10;1.00;;;;;;5041797;28;19916;-83
2021/10/07 08:48:14;;;;;;;;;;;20.60;99.90;;;;;;5037930;28;20399;-83
2021/10/07 08:50:40;;;;;;;;;;;21.30;99.90;;;;;;5038361;28;19916;-82
2021/10/07 08:53:08;;;;;;;;;;;21.90;38.20;;;;;;5031584;28;19917;-81
2021/10/07 08:55:33;;;;;;;;;;;22.90;1.00;;;;;;5042908;28;20011;-83
2021/10/07 08:57:59;;;;;;;;;;;23.90;1.00;;;;;;5048155;28;19948;-83
2021/10/07 09:00:24;;;;;;;;;;;25.60;1.00;;;;;;5044157;28;19928;-83
2021/10/07 09:02:50;;;;;;;;;;;28.40;1.00;;;;;;5047166;28;20352;-84
2021/10/07 09:05:17;;;;;;;;;;;29.40;99.90;;;;;;5045860;28;19974;-83
2021/10/07 09:07:52;;;;;;;;;;;29.40;99.90;;;;;;5046230;28;19955;-82
2021/10/07 09:10:18;;;;;;;;;;;28.40;99.90;;;;;;5043367;28;19909;-84
2021/10/07 09:13:03;;;;;;;;;;;28.50;99.90;;;;;;5045324;28;19937;-83
2021/10/07 09:15:29;;;;;;;;;;;30.40;99.90;;;;;;5044810;28;19915;-83
2021/10/07 09:17:55;;;;;;;;;;;30.80;99.90;;;;;;5045513;28;19936;-83
2021/10/07 09:20:33;;;;;;;;;;;29.40;99.90;;;;;;5041002;28;20365;-82
2021/10/07 09:23:10;;;;;;;;;;;29.20;99.90;;;;;;5049198;28;20000;-84
2021/10/07 09:25:57;;;;;;;;;;;31.80;99.90;;;;;;5040942;28;20309;-84
2021/10/07 09:28:24;;;;;;;;;;;32.20;99.90;;;;;;5042946;28;19920;-82
2021/10/07 09:30:55;;;;;;;;;;;30.60;99.90;;;;;;5045450;28;19913;-83
2021/10/07 09:33:25;;;;;;;;;;;29.30;99.90;;;;;;5037810;28;19932;-83
2021/10/07 09:35:51;;;;;;;;;;;29.00;99.90;;;;;;5042029;28;20352;-83
2021/10/07 09:38:19;;;;;;;;;;;31.80;99.90;;;;;;5038458;28;19917;-80
2021/10/07 09:40:45;;;;;;;;;;;33.00;99.90;;;;;;5040095;28;19916;-83
2021/10/07 09:43:14;;;;;;;;;;;31.50;99.90;;;;;;5039657;28;19944;-83
2021/10/07 09:45:40;;;;;;;;;;;30.10;99.90;;;;;;5039136;28;20289;-84
2021/10/07 09:48:06;;;;;;;;;;;30.00;99.90;;;;;;5050109;28;19912;-83
2021/10/07 09:50:36;;;;;;;;;;;31.90;99.90;;;;;;5042841;28;19917;-82
2021/10/07 09:53:05;;;;;;;;;;;34.10;99.90;;;;;;5041423;28;19990;-82
2021/10/07 09:55:34;;;;;;;;;;;35.50;99.90;;;;;;5048573;28;19916;-82
2021/10/07 09:58:04;;;;;;;;;;;33.40;99.90;;;;;;5050198;28;20397;-81
2021/10/07 10:00:32;;;;;;;;;;;30.60;99.90;;;;;;5046246;28;19920;-83
2021/10/07 10:03:00;;;;;;;;;;;28.80;99.90;;;;;;5047364;28;19948;-84
2021/10/07 10:05:26;;;;;;;;;;;28.20;99.90;;;;;;5051776;28;20389;-83
2021/10/07 10:07:51;;;;;;;;;;;27.80;99.90;;;;;;5052217;28;20297;-84
2021/10/07 10:10:17;;;;;;;;;;;29.60;99.90;;;;;;5049448;28;19910;-81
2021/10/07 10:12:43;;;;;;;;;;;31.60;99.90;;;;;;5049917;28;20430;-82
2021/10/07 10:15:09;;;;;;;;;;;33.00;99.90;;;;;;5042034;28;20187;-82
2021/10/07 10:17:35;;;;;;;;;;;34.10;99.90;;;;;;5035302;28;20357;-82
2021/10/07 10:20:01;;;;;;;;;;;33.10;99.90;;;;;;5044050;28;19913;-81
2021/10/07 10:22:28;;;;;;;;;;;34.30;99.90;;;;;;5049014;28;20004;-82
2021/10/07 10:24:54;;;;;;;;;;;35.20;99.90;;;;;;5051117;28;20008;-82
2021/10/07 10:27:19;;;;;;;;;;;36.20;99.90;;;;;;5045546;28;19909;-82
2021/10/07 10:29:45;;;;;;;;;;;37.20;99.90;;;;;;5050885;28;19920;-82
2021/10/07 10:32:13;;;;;;;;;;;38.00;99.90;;;;;;5052646;28;20392;-82
2021/10/07 10:34:41;;;;;;;;;;;38.40;99.90;;;;;;5051997;28;19908;-82
2021/10/07 10:37:07;;;;;;;;;;;38.80;99.90;;;;;;5050766;28;19928;-82
2021/10/07 10:39:35;;;;;;;;;;;39.00;99.90;;;;;;5052595;28;19955;-82
2021/10/07 10:42:02;;;;;;;;;;;39.30;99.90;;;;;;5049643;28;19919;-82
2021/10/07 10:44:30;;;;;;;;;;;39.90;99.90;;;;;;5048538;28;19931;-81
2021/10/07 10:46:59;;;;;;;;;;;40.30;99.90;;;;;;5043492;28;19984;-81
2021/10/07 10:49:37;;;;;;;;;;;40.90;99.90;;;;;;5046215;28;20304;-82
2021/10/07 10:52:21;;;;;;;;;;;40.90;99.90;;;;;;5051600;28;20000;-82
2021/10/07 10:54:48;;;;;;;;;;;39.10;99.90;;;;;;5043656;28;19913;-81
2021/10/07 10:57:26;;;;;;;;;;;36.70;99.90;;;;;;5048109;28;19921;-81
2021/10/07 11:00:03;;;;;;;;;;;35.10;99.90;;;;;;5048566;28;20293;-82
2021/10/07 11:02:29;;;;;;;;;;;33.50;99.90;;;;;;5048545;28;19971;-81
2021/10/07 11:04:55;;;;;;;;;;;32.10;99.90;;;;;;5051742;28;19940;-81
2021/10/07 11:07:25;;;;;;;;;;;30.90;99.90;;;;;;5067349;28;19917;-82
2021/10/07 11:09:55;;;;;;;;;;;30.30;99.90;;;;;;5052217;28;19909;-82
2021/10/07 11:12:21;;;;;;;;;;;29.60;99.90;;;;;;5054001;28;19920;-82
2021/10/07 11:14:47;;;;;;;;;;;28.80;99.90;;;;;;5049115;28;19949;-81
2021/10/07 11:17:13;;;;;;;;;;;28.20;99.90;;;;;;5040018;28;19917;-80
2021/10/07 11:19:39;;;;;;;;;;;27.60;99.90;;;;;;5055039;28;19909;-81
2021/10/07 11:22:10;;;;;;;;;;;27.00;99.90;;;;;;5054144;28;19913;-80
2021/10/07 11:24:52;;;;;;;;;;;26.40;99.90;;;;;;5052210;28;19913;-80
2021/10/07 11:27:40;;;;;;;;;;;25.80;99.90;;;;;;5043754;28;19914;-80
2021/10/07 11:30:08;;;;;;;;;;;25.20;99.90;;;;;;5037398;28;19958;-80
2021/10/07 11:32:34;;;;;;;;;;;24.80;99.90;;;;;;5045465;28;20302;-80
2021/10/07 11:35:04;;;;;;;;;;;24.50;99.90;;;;;;5046197;28;19915;-79
2021/10/07 11:37:55;;;;;;;;;;;24.10;99.90;;;;;;5045784;28;19959;-81
2021/10/07 11:40:27;;;;;;;;;;;23.70;99.90;;;;;;5040375;28;19917;-80
2021/10/07 11:42:57;;;;;;;;;;;23.40;99.90;;;;;;5050304;28;19909;-81
2021/10/07 11:45:26;;;;;;;;;;;23.30;99.90;;;;;;5045323;28;19913;-79
2021/10/07 11:47:52;;;;;;;;;;;23.40;99.90;;;;;;5040824;28;19912;-80
2021/10/07 11:50:19;;;;;;;;;;;23.50;99.90;;;;;;5042872;28;19954;-81
2021/10/07 11:52:44;;;;;;;;;;;25.10;99.90;;;;;;5042357;28;20349;-81
2021/10/07 11:55:12;;;;;;;;;;;26.50;99.90;;;;;;5040507;28;19917;-81
2021/10/07 11:57:46;;;;;;;;;;;26.50;99.90;;;;;;5045711;28;20007;-80
2021/10/07 12:00:12;;;;;;;;;;;26.90;99.90;;;;;;5047310;28;19909;-80
2021/10/07 12:02:37;;;;;;;;;;;26.40;99.90;;;;;;5037535;28;20432;-81
2021/10/07 12:05:16;;;;;;;;;;;27.40;99.90;;;;;;5043199;28;19909;-80
2021/10/07 12:07:42;;;;;;;;;;;27.00;99.90;;;;;;5040361;28;19928;-81
2021/10/07 12:10:07;;;;;;;;;;;27.00;99.90;;;;;;5048898;28;19913;-81
2021/10/07 12:12:33;;;;;;;;;;;27.90;99.90;;;;;;5044308;28;20372;-81
2021/10/07 12:14:59;;;;;;;;;;;29.00;99.90;;;;;;5045472;28;19921;-81
2021/10/07 12:17:25;;;;;;;;;;;29.90;99.90;;;;;;5048641;28;19917;-80
2021/10/07 12:19:50;;;;;;;;;;;29.20;99.90;;;;;;5050786;28;20396;-81
2021/10/07 12:22:29;;;;;;;;;;;28.60;99.90;;;;;;5037299;28;20019;-81
2021/10/07 12:24:58;;;;;;;;;;;28.70;99.90;;;;;;5036032;28;19920;-81
2021/10/07 12:27:30;;;;;;;;;;;29.40;99.90;;;;;;5046991;28;19917;-81
2021/10/07 12:30:02;;;;;;;;;;;30.30;99.90;;;;;;5043961;28;19924;-81
2021/10/07 12:32:28;;;;;;;;;;;29.80;99.90;;;;;;5042556;28;19919;-82
2021/10/07 12:34:56;;;;;;;;;;;28.80;99.90;;;;;;5034459;28;20000;-80
2021/10/07 12:37:26;;;;;;;;;;;28.20;99.90;;;;;;5044799;28;19949;-81
2021/10/07 12:39:52;;;;;;;;;;;28.30;99.90;;;;;;5038755;28;19939;-80
2021/10/07 12:42:18;;;;;;;;;;;28.20;99.90;;;;;;5044224;28;19913;-81
2021/10/07 12:44:46;;;;;;;;;;;28.90;99.90;;;;;;5051147;28;19913;-81
2021/10/07 12:47:16;;;;;;;;;;;29.80;99.90;;;;;;5044366;28;19917;-82
2021/10/07 12:49:46;;;;;;;;;;;30.50;99.90;;;;;;5041048;28;20280;-82
2021/10/07 12:52:12;;;;;;;;;;;30.90;99.90;;;;;;5047557;28;19905;-82
2021/10/07 12:54:37;;;;;;;;;;;31.30;99.90;;;;;;5050832;28;19968;-82
2021/10/07 12:57:03;;;;;;;;;;;31.50;99.90;;;;;;5035875;28;19932;-82
2021/10/07 12:59:28;;;;;;;;;;;31.70;99.90;;;;;;5044212;28;19913;-81
2021/10/07 13:01:53;;;;;;;;;;;31.80;99.90;;;;;;5043785;28;20008;-81
2021/10/07 13:04:23;;;;;;;;;;;31.70;99.90;;;;;;5049944;28;19920;-82
2021/10/07 13:06:50;;;;;;;;;;;31.60;99.90;;;;;;5055074;28;19976;-82
2021/10/07 13:09:16;;;;;;;;;;;31.50;99.90;;;;;;5049584;28;19920;-82
2021/10/07 13:11:41;;;;;;;;;;;31.50;99.90;;;;;;5038436;28;19913;-82
2021/10/07 13:14:07;;;;;;;;;;;31.50;99.90;;;;;;5033077;28;19914;-82
2021/10/07 13:16:33;;;;;;;;;;;31.50;99.90;;;;;;5045487;28;20285;-82
2021/10/07 13:18:59;;;;;;;;;;;31.50;99.90;;;;;;5038253;28;19949;-81
2021/10/07 13:21:28;;;;;;;;;;;31.30;99.90;;;;;;5049680;28;20411;-81
2021/10/07 13:23:54;;;;;;;;;;;31.10;99.90;;;;;;5044364;28;19913;-81
2021/10/07 13:26:19;;;;;;;;;;;30.90;99.90;;;;;;5050211;28;19919;-81
2021/10/07 13:28:45;;;;;;;;;;;30.70;99.90;;;;;;5049273;28;19917;-82
2021/10/07 13:31:11;;;;;;;;;;;30.40;99.90;;;;;;5046258;28;19913;-82
2021/10/07 13:33:37;;;;;;;;;;;30.10;99.90;;;;;;5046889;28;20424;-82
2021/10/07 13:36:03;;;;;;;;;;;30.10;99.90;;;;;;5049867;28;19954;-82
2021/10/07 13:38:28;;;;;;;;;;;29.70;99.90;;;;;;5044411;28;20329;-82
2021/10/07 13:40:55;;;;;;;;;;;29.50;99.90;;;;;;5042301;28;19920;-82
2021/10/07 13:43:21;;;;;;;;;;;29.40;99.90;;;;;;5047822;28;19917;-81
2021/10/07 13:45:46;;;;;;;;;;;29.10;99.90;;;;;;5046830;28;19913;-82
2021/10/07 13:48:12;;;;;;;;;;;28.80;99.90;;;;;;5047323;28;19912;-82
2021/10/07 13:50:38;;;;;;;;;;;28.60;99.90;;;;;;5043585;28;19936;-82
2021/10/07 13:53:03;;;;;;;;;;;28.60;99.90;;;;;;5045395;28;19928;-81
2021/10/07 13:55:29;;;;;;;;;;;28.60;99.90;;;;;;5045539;28;19916;-82
2021/10/07 13:57:56;;;;;;;;;;;28.50;99.90;;;;;;5044686;28;20099;-82
2021/10/07 14:00:21;;;;;;;;;;;28.10;99.90;;;;;;5036808;28;19917;-82
2021/10/07 14:02:48;;;;;;;;;;;27.60;99.90;;;;;;5046403;28;19924;-82
2021/10/07 14:05:13;;;;;;;;;;;27.20;99.90;;;;;;5037543;28;19914;-81
2021/10/07 14:07:39;;;;;;;;;;;26.90;99.90;;;;;;5046686;28;19923;-81
2021/10/07 14:10:05;;;;;;;;;;;26.60;99.90;;;;;;5038722;28;19913;-81
2021/10/07 14:12:31;;;;;;;;;;;26.30;99.90;;;;;;5039622;28;19936;-81
2021/10/07 14:14:56;;;;;;;;;;;26.20;99.90;;;;;;5046061;28;19917;-82
2021/10/07 14:17:22;;;;;;;;;;;26.30;99.90;;;;;;5050274;28;19917;-82
2021/10/07 14:19:47;;;;;;;;;;;26.30;99.90;;;;;;5036738;28;19916;-80
2021/10/07 14:22:13;;;;;;;;;;;26.30;99.90;;;;;;5039091;28;19920;-81
2021/10/07 14:24:38;;;;;;;;;;;26.30;99.90;;;;;;5045895;28;19916;-81